createdAt,value
2018-12-22T00:01:39.052Z,97485.42
2018-12-22T00:04:07.513Z,97483.69
2018-12-22T00:06:36.034Z,97474.20
2018-12-22T00:09:05.743Z,97484.45
2018-12-22T00:11:34.200Z,97483.02
2018-12-22T00:14:03.684Z,97470.59
2018-12-22T00:16:34.884Z,97464.58
2018-12-22T00:19:20.495Z,97461.52
2018-12-22T00:21:49.349Z,97463.73
2018-12-22T00:24:17.775Z,97458.17
2018-12-22T00:26:46.288Z,97456.88
2018-12-22T00:29:14.945Z,97451.23
2018-12-22T00:31:43.663Z,97458.52
2018-12-22T00:34:12.196Z,97467.52
2018-12-22T00:36:40.716Z,97468.33
2018-12-22T00:39:09.177Z,97469.89
2018-12-22T00:41:37.646Z,97472.44
2018-12-22T00:44:06.331Z,97457.56
2018-12-22T00:46:35.108Z,97462.70
2018-12-22T00:49:03.627Z,97475.98
2018-12-22T00:51:32.307Z,97491.40
2018-12-22T00:54:00.772Z,97485.95
2018-12-22T00:56:29.274Z,97466.66
2018-12-22T00:58:58.004Z,97473.48
2018-12-22T01:01:26.470Z,97466.98
2018-12-22T01:03:55.008Z,97468.70
2018-12-22T01:06:23.816Z,97487.57
2018-12-22T01:08:52.555Z,97479.84
2018-12-22T01:11:21.796Z,97483.69
2018-12-22T01:13:50.502Z,97472.56
2018-12-22T01:16:19.184Z,97484.19
2018-12-22T01:18:47.774Z,97473.41
2018-12-22T01:21:16.224Z,97475.47
2018-12-22T01:23:44.671Z,97474.25
2018-12-22T01:26:13.158Z,97485.75
2018-12-22T01:28:41.573Z,97485.30
2018-12-22T01:31:10.420Z,97484.47
2018-12-22T01:33:38.886Z,97476.80
2018-12-22T01:36:07.363Z,97473.84
2018-12-22T01:38:36.293Z,97467.83
2018-12-22T01:41:04.767Z,97472.54
2018-12-22T01:43:33.205Z,97468.70
2018-12-22T01:46:01.655Z,97469.14
2018-12-22T01:48:30.136Z,97338.84
2018-12-22T01:50:58.584Z,97449.14
2018-12-22T01:53:27.067Z,97456.42
2018-12-22T01:55:55.538Z,97459.80
2018-12-22T01:58:23.969Z,97467.06
2018-12-22T02:00:53.546Z,97456.33
2018-12-22T02:03:22.059Z,97460.56
2018-12-22T02:05:50.557Z,97458.82
2018-12-22T02:08:19.216Z,97469.95
2018-12-22T02:10:47.686Z,97474.19
2018-12-22T02:13:16.164Z,97475.19
2018-12-22T02:15:44.883Z,97468.16
2018-12-22T02:18:13.869Z,97465.86
2018-12-22T02:20:42.749Z,97452.58
2018-12-22T02:23:11.431Z,97441.05
2018-12-22T02:25:39.908Z,97456.39
2018-12-22T02:28:08.815Z,97456.76
2018-12-22T02:30:37.276Z,97445.16
2018-12-22T02:33:06.443Z,97457.96
2018-12-22T02:35:35.069Z,97452.77
2018-12-22T02:38:03.564Z,97448.83
2018-12-22T02:40:32.307Z,97447.57
2018-12-22T02:43:00.835Z,97460.50
2018-12-22T02:45:29.338Z,97464.00
2018-12-22T02:47:58.000Z,97464.95
2018-12-22T02:50:26.769Z,97472.76
2018-12-22T02:52:55.253Z,97459.53
2018-12-22T02:55:24.669Z,97471.95
2018-12-22T02:57:53.123Z,97460.77
2018-12-22T03:00:21.632Z,97468.94
2018-12-22T03:02:50.059Z,97443.69
2018-12-22T03:05:18.531Z,97456.67
2018-12-22T03:07:47.015Z,97469.03
2018-12-22T03:10:15.707Z,97460.21
2018-12-22T03:12:44.368Z,97449.85
2018-12-22T03:15:12.860Z,97448.98
2018-12-22T03:17:41.530Z,97456.85
2018-12-22T03:20:10.359Z,97457.72
2018-12-22T03:22:38.840Z,97456.44
2018-12-22T03:25:07.494Z,97446.52
2018-12-22T03:27:36.090Z,97439.20
2018-12-22T03:30:05.351Z,97452.61
2018-12-22T03:32:34.835Z,97462.51
2018-12-22T03:35:03.503Z,97462.01
2018-12-22T03:37:31.999Z,97455.98
2018-12-22T03:40:00.479Z,97452.99
2018-12-22T03:42:28.913Z,97450.45
2018-12-22T03:44:57.413Z,97450.02
2018-12-22T03:47:26.084Z,97447.94
2018-12-22T03:49:54.795Z,97442.38
2018-12-22T03:52:23.317Z,97456.55
2018-12-22T03:54:52.042Z,97464.34
2018-12-22T03:57:20.459Z,97452.84
2018-12-22T03:59:50.642Z,97456.77
2018-12-22T04:02:19.067Z,97477.38
2018-12-22T04:04:47.736Z,97471.89
2018-12-22T04:07:16.226Z,97454.83
2018-12-22T04:09:44.647Z,97447.59
2018-12-22T04:12:13.103Z,97455.31
2018-12-22T04:14:41.670Z,97474.27
2018-12-22T04:17:10.124Z,97481.20
2018-12-22T04:19:38.565Z,97472.64
2018-12-22T04:22:07.287Z,97364.36
2018-12-22T04:24:36.847Z,97470.70
2018-12-22T04:27:05.269Z,97465.47
2018-12-22T04:29:34.417Z,97466.69
2018-12-22T04:32:03.101Z,97468.41
2018-12-22T04:34:31.777Z,97471.82
2018-12-22T04:37:00.267Z,97470.47
2018-12-22T04:39:28.989Z,97460.26
2018-12-22T04:41:57.659Z,97468.34
2018-12-22T04:44:26.159Z,97475.19
2018-12-22T04:46:55.483Z,97475.62
2018-12-22T04:49:23.920Z,97483.41
2018-12-22T04:51:52.400Z,97475.70
2018-12-22T04:54:21.105Z,97468.41
2018-12-22T04:56:49.592Z,97468.85
2018-12-22T04:59:18.091Z,97485.58
2018-12-22T05:01:46.560Z,97489.38
2018-12-22T05:04:14.991Z,97485.55
2018-12-22T05:06:43.470Z,97490.62
2018-12-22T05:09:11.932Z,97482.98
2018-12-22T05:11:40.424Z,97479.77
2018-12-22T05:14:09.912Z,97483.09
2018-12-22T05:16:38.582Z,97471.42
2018-12-22T05:19:07.018Z,97464.92
2018-12-22T05:21:36.438Z,97466.50
2018-12-22T05:24:05.132Z,97475.98
2018-12-22T05:26:33.592Z,97478.50
2018-12-22T05:29:02.146Z,97467.79
2018-12-22T05:31:30.583Z,97457.06
2018-12-22T05:33:59.103Z,97455.33
2018-12-22T05:36:27.630Z,97448.05
2018-12-22T05:38:56.356Z,97455.33
2018-12-22T05:41:25.042Z,97460.92
2018-12-22T05:43:53.751Z,97460.50
2018-12-22T05:46:22.581Z,97457.46
2018-12-22T05:48:51.267Z,97462.13
2018-12-22T05:51:19.767Z,97467.25
2018-12-22T05:53:48.234Z,97461.17
2018-12-22T05:56:16.679Z,97461.59
2018-12-22T05:58:45.187Z,97456.85
2018-12-22T06:01:16.316Z,97464.99
2018-12-22T06:03:44.820Z,97452.95
2018-12-22T06:06:13.501Z,97449.09
2018-12-22T06:08:42.229Z,97460.23
2018-12-22T06:11:13.954Z,97464.09
2018-12-22T06:14:00.672Z,97465.33
2018-12-22T06:16:29.196Z,97457.96
2018-12-22T06:18:57.608Z,97468.58
2018-12-22T06:21:26.485Z,97444.92
2018-12-22T06:23:54.981Z,97464.47
2018-12-22T06:26:24.897Z,97467.84
2018-12-22T06:28:53.342Z,97456.67
2018-12-22T06:31:21.824Z,97458.88
2018-12-22T06:33:50.288Z,97458.44
2018-12-22T06:36:19.181Z,97456.23
2018-12-22T06:38:47.690Z,97461.03
2018-12-22T06:41:16.164Z,97449.22
2018-12-22T06:43:44.648Z,97454.13
2018-12-22T06:46:13.145Z,97455.56
2018-12-22T06:48:41.617Z,97457.03
2018-12-22T06:51:10.074Z,97452.58
2018-12-22T06:53:38.587Z,97459.75
2018-12-22T06:56:07.068Z,97464.64
2018-12-22T06:58:35.548Z,97461.31
2018-12-22T07:01:04.059Z,97454.86
2018-12-22T07:03:32.553Z,97461.30
2018-12-22T07:06:01.207Z,97456.23
2018-12-22T07:08:29.769Z,97439.54
2018-12-22T07:10:58.578Z,97441.29
2018-12-22T07:13:27.017Z,97436.66
2018-12-22T07:15:55.532Z,97445.74
2018-12-22T07:18:24.097Z,97460.02
2018-12-22T07:20:52.777Z,97466.92
2018-12-22T07:23:21.274Z,97469.98
2018-12-22T07:25:49.718Z,97477.27
2018-12-22T07:28:18.163Z,97480.41
2018-12-22T07:30:46.672Z,97479.13
2018-12-22T07:33:15.133Z,97470.73
2018-12-22T07:35:43.597Z,97464.94
2018-12-22T07:38:12.108Z,97462.61
2018-12-22T07:40:40.913Z,97466.81
2018-12-22T07:43:09.384Z,97468.85
2018-12-22T07:45:38.176Z,97479.04
2018-12-22T07:48:06.639Z,97468.22
2018-12-22T07:50:35.106Z,97486.35
2018-12-22T07:53:03.586Z,97482.62
2018-12-22T07:55:32.086Z,97509.20
2018-12-22T07:58:00.879Z,97475.08
2018-12-22T08:00:34.752Z,97496.05
2018-12-22T08:03:00.573Z,97495.45
2018-12-22T08:05:29.084Z,97471.66
2018-12-22T08:07:57.585Z,97493.55
2018-12-22T08:10:26.302Z,97473.38
2018-12-22T08:12:54.728Z,97492.27
2018-12-22T08:15:23.243Z,97481.97
2018-12-22T08:17:51.724Z,97479.92
2018-12-22T08:20:20.537Z,97490.36
2018-12-22T08:22:51.091Z,97493.94
2018-12-22T08:25:19.545Z,97493.58
2018-12-22T08:27:47.989Z,97492.80
2018-12-22T08:30:16.472Z,97480.81
2018-12-22T08:32:45.172Z,97473.58
2018-12-22T08:35:13.639Z,97469.75
2018-12-22T08:37:42.152Z,97471.55
2018-12-22T08:40:10.723Z,97458.70
2018-12-22T08:42:39.182Z,97458.38
2018-12-22T08:45:07.969Z,97464.89
2018-12-22T08:47:36.408Z,97453.28
2018-12-22T08:50:09.300Z,97458.91
2018-12-22T08:52:37.797Z,97467.55
2018-12-22T08:55:06.947Z,97466.72
2018-12-22T08:57:35.388Z,97464.16
2018-12-22T09:00:06.225Z,97468.50
2018-12-22T09:02:34.683Z,97466.77
2018-12-22T09:05:03.344Z,97452.54
2018-12-22T09:07:31.844Z,97456.41
2018-12-22T09:10:00.312Z,97464.98
2018-12-22T09:12:28.759Z,97455.04
2018-12-22T09:14:57.251Z,97442.47
2018-12-22T09:17:25.717Z,97440.67
2018-12-22T09:19:54.137Z,97441.05
2018-12-22T09:22:22.626Z,97431.99
2018-12-22T09:24:51.323Z,97425.56
2018-12-22T09:27:19.782Z,97434.20
2018-12-22T09:29:48.265Z,97435.51
2018-12-22T09:32:16.693Z,97429.47
2018-12-22T09:34:45.141Z,97442.84
2018-12-22T09:37:13.990Z,97443.70
2018-12-22T09:39:42.420Z,97437.63
2018-12-22T09:42:10.865Z,97440.20
2018-12-22T09:44:39.361Z,97439.33
2018-12-22T09:47:07.786Z,97434.11
2018-12-22T09:49:36.271Z,97441.79
2018-12-22T09:52:04.776Z,97447.36
2018-12-22T09:54:33.202Z,97434.85
2018-12-22T09:57:01.657Z,97450.76
2018-12-22T09:59:30.136Z,97449.41
2018-12-22T10:01:58.564Z,97429.08
2018-12-22T10:04:27.771Z,97432.97
2018-12-22T10:06:56.283Z,97438.98
2018-12-22T10:09:24.725Z,97393.96
2018-12-22T10:11:53.141Z,97388.34
2018-12-22T10:14:21.651Z,97422.06
2018-12-22T10:16:50.092Z,97393.61
2018-12-22T10:19:18.571Z,97372.44
2018-12-22T10:21:47.076Z,97383.67
2018-12-22T10:24:15.527Z,97404.34
2018-12-22T10:26:44.230Z,97398.31
2018-12-22T10:29:12.744Z,97383.61
2018-12-22T10:31:41.454Z,97381.84
2018-12-22T10:34:12.520Z,97153.88
2018-12-22T10:36:42.436Z,97375.27
2018-12-22T10:39:13.085Z,97383.03
2018-12-22T10:41:41.520Z,97386.41
2018-12-22T10:44:10.000Z,97394.69
2018-12-22T10:46:38.396Z,97388.20
2018-12-22T10:49:06.823Z,97382.52
2018-12-22T10:51:35.301Z,97379.03
2018-12-22T10:54:03.853Z,97379.84
2018-12-22T10:56:32.899Z,97381.52
2018-12-22T10:59:01.380Z,97370.63
2018-12-22T11:01:29.799Z,97381.80
2018-12-22T11:03:58.272Z,97396.48
2018-12-22T11:06:26.744Z,97398.12
2018-12-22T11:08:56.919Z,97385.50
2018-12-22T11:11:25.336Z,97381.69
2018-12-22T11:13:53.804Z,97386.02
2018-12-22T11:16:22.617Z,97390.77
2018-12-22T11:18:53.065Z,97381.37
2018-12-22T11:21:22.387Z,97373.60
2018-12-22T11:23:51.453Z,97375.31
2018-12-22T11:26:21.422Z,97384.03
2018-12-22T11:28:50.279Z,97396.55
2018-12-22T11:31:18.742Z,97407.29
2018-12-22T11:33:47.189Z,97404.13
2018-12-22T11:36:16.080Z,97401.03
2018-12-22T11:38:44.645Z,97395.06
2018-12-22T11:41:13.089Z,97381.69
2018-12-22T11:43:43.275Z,97355.00
2018-12-22T11:46:11.689Z,97369.58
2018-12-22T11:48:41.077Z,97373.89
2018-12-22T11:51:09.690Z,97381.27
2018-12-22T11:53:38.156Z,97367.02
2018-12-22T11:56:06.637Z,97360.53
2018-12-22T11:58:35.213Z,97297.81
2018-12-22T12:01:05.498Z,97403.39
2018-12-22T12:03:33.936Z,97387.19
2018-12-22T12:06:02.746Z,97384.63
2018-12-22T12:08:31.188Z,97403.65
2018-12-22T12:11:00.543Z,97412.10
2018-12-22T12:13:29.146Z,97382.61
2018-12-22T12:16:00.350Z,97396.49
2018-12-22T12:21:27.046Z,97365.55
2018-12-22T12:23:55.506Z,97391.53
2018-12-22T12:26:23.946Z,97362.73
2018-12-22T12:28:52.386Z,97331.28
2018-12-22T12:31:21.398Z,97349.59
2018-12-22T12:33:52.255Z,97375.29
2018-12-22T12:36:20.763Z,97359.33
2018-12-22T12:38:49.277Z,97337.86
2018-12-22T12:41:17.772Z,97351.34
2018-12-22T12:43:46.259Z,97354.86
2018-12-22T12:46:14.737Z,97371.31
2018-12-22T12:48:43.182Z,97373.70
2018-12-22T12:51:11.673Z,97373.37
2018-12-22T12:53:41.860Z,97383.77
2018-12-22T12:56:10.557Z,97411.64
2018-12-22T12:58:39.262Z,97425.16
2018-12-22T13:01:07.712Z,97444.28
2018-12-22T13:03:36.169Z,97434.66
2018-12-22T13:06:04.673Z,97412.53
2018-12-22T13:08:33.133Z,97398.98
2018-12-22T13:11:01.610Z,97387.42
2018-12-22T13:13:36.568Z,97393.17
2018-12-22T13:16:05.017Z,97385.87
2018-12-22T13:18:33.942Z,97368.92
2018-12-22T13:21:04.830Z,97354.58
2018-12-22T13:23:33.342Z,97351.98
2018-12-22T13:26:02.061Z,97365.52
2018-12-22T13:28:32.703Z,97372.63
2018-12-22T13:31:01.182Z,97374.91
2018-12-22T13:33:32.667Z,97374.46
2018-12-22T13:36:01.867Z,97386.58
2018-12-22T13:38:30.436Z,97390.45
2018-12-22T13:40:58.925Z,97395.56
2018-12-22T13:43:27.417Z,97397.90
2018-12-22T13:45:55.847Z,97404.19
2018-12-22T13:48:24.515Z,97412.05
2018-12-22T13:50:53.532Z,97384.83
2018-12-22T13:53:22.088Z,97419.55
2018-12-22T13:55:50.782Z,97391.80
2018-12-22T13:58:19.267Z,97401.00
2018-12-22T14:00:47.809Z,97409.39
2018-12-22T14:03:16.932Z,97398.53
2018-12-22T14:05:45.496Z,97397.13
2018-12-22T14:08:13.948Z,97412.48
2018-12-22T14:10:42.516Z,97401.86
2018-12-22T14:13:11.000Z,97401.77
2018-12-22T14:15:41.211Z,97405.45
2018-12-22T14:18:15.999Z,97403.81
2018-12-22T14:20:46.243Z,97392.70
2018-12-22T14:23:14.818Z,97399.75
2018-12-22T14:25:43.312Z,97420.47
2018-12-22T14:28:11.781Z,97427.11
2018-12-22T14:30:41.264Z,97441.15
2018-12-22T14:33:10.072Z,97436.55
2018-12-22T14:35:38.521Z,97435.06
2018-12-22T14:38:07.059Z,97441.37
2018-12-22T14:40:35.997Z,97441.96
2018-12-22T14:43:04.457Z,97453.73
2018-12-22T14:45:33.937Z,97461.97
2018-12-22T14:48:03.603Z,97455.05
2018-12-22T14:50:32.921Z,97450.27
2018-12-22T14:53:01.427Z,97441.58
2018-12-22T14:55:32.109Z,97454.59
2018-12-22T14:58:02.206Z,97468.52
2018-12-22T15:00:32.527Z,97461.72
2018-12-22T15:03:01.053Z,97468.03
2018-12-22T15:05:29.712Z,97464.36
2018-12-22T15:07:58.371Z,97480.83
2018-12-22T15:10:27.364Z,97474.28
2018-12-22T15:12:55.886Z,97463.66
2018-12-22T15:15:24.413Z,97475.51
2018-12-22T15:17:53.194Z,97477.34
2018-12-22T15:20:26.492Z,97478.32
2018-12-22T15:22:55.220Z,97495.58
2018-12-22T15:25:23.723Z,97509.85
2018-12-22T15:27:52.253Z,97516.33
2018-12-22T15:30:21.091Z,97511.27
2018-12-22T15:32:54.494Z,97493.66
2018-12-22T15:35:20.068Z,97499.80
2018-12-22T15:37:48.527Z,97506.30
2018-12-22T15:40:18.671Z,97467.54
2018-12-22T15:42:47.738Z,97485.67
2018-12-22T15:45:17.464Z,97512.41
2018-12-22T15:47:47.288Z,97518.47
2018-12-22T15:50:20.902Z,97531.44
2018-12-22T15:52:49.389Z,97519.38
2018-12-22T15:55:17.910Z,97535.79
2018-12-22T15:57:46.603Z,97556.50
2018-12-22T16:00:15.137Z,97545.25
2018-12-22T16:02:52.792Z,97543.98
2018-12-22T16:05:15.457Z,97550.00
2018-12-22T16:07:44.097Z,97548.28
2018-12-22T16:10:16.016Z,97555.61
2018-12-22T16:12:45.353Z,97561.66
2018-12-22T16:15:18.174Z,97553.45
2018-12-22T16:17:46.816Z,97562.50
2018-12-22T16:20:15.264Z,97574.98
2018-12-22T16:22:48.061Z,97576.28
2018-12-22T16:25:16.572Z,97567.64
2018-12-22T16:27:45.240Z,97562.45
2018-12-22T16:30:18.268Z,97562.42
2018-12-22T16:32:47.322Z,97559.81
2018-12-22T16:35:15.926Z,97565.83
2018-12-22T16:37:44.431Z,97579.59
2018-12-22T16:40:13.330Z,97588.64
2018-12-22T16:42:41.777Z,97578.70
2018-12-22T16:45:16.261Z,97591.22
2018-12-22T16:47:44.767Z,97591.65
2018-12-22T16:50:15.749Z,97607.65
2018-12-22T16:52:44.557Z,97604.61
2018-12-22T16:55:16.283Z,97616.15
2018-12-22T16:58:02.301Z,97608.91
2018-12-22T17:00:34.865Z,97612.24
2018-12-22T17:03:10.766Z,97616.91
2018-12-22T17:05:34.971Z,97609.59
2018-12-22T17:08:05.689Z,97603.09
2018-12-22T17:10:34.335Z,97610.84
2018-12-22T17:13:02.839Z,97606.11
2018-12-22T17:15:31.292Z,97610.88
2018-12-22T17:17:59.762Z,97620.31
2018-12-22T17:20:28.845Z,97632.38
2018-12-22T17:23:08.036Z,97625.48
2018-12-22T17:25:38.866Z,97545.11
2018-12-22T17:28:07.400Z,97639.69
2018-12-22T17:30:36.796Z,97659.62
2018-12-22T17:33:05.469Z,97668.87
2018-12-22T17:35:34.368Z,97675.87
2018-12-22T17:38:03.217Z,97687.53
2018-12-22T17:40:31.787Z,97693.95
2018-12-22T17:43:00.316Z,97710.23
2018-12-22T17:45:28.836Z,97716.20
2018-12-22T17:47:57.335Z,97716.59
2018-12-22T17:50:25.895Z,97727.95
2018-12-22T17:52:55.427Z,97724.44
2018-12-22T17:55:25.045Z,97734.12
2018-12-22T17:57:55.786Z,97737.77
2018-12-22T18:00:24.268Z,97740.42
2018-12-22T18:02:53.439Z,97736.93
2018-12-22T18:05:23.126Z,97724.05
2018-12-22T18:07:52.714Z,97716.77
2018-12-22T18:10:21.248Z,97719.81
2018-12-22T18:12:50.213Z,97727.48
2018-12-22T18:15:22.638Z,97721.08
2018-12-22T18:17:51.472Z,97709.38
2018-12-22T18:20:20.878Z,97715.30
2018-12-22T18:22:49.540Z,97728.39
2018-12-22T18:25:21.232Z,97716.95
2018-12-22T18:27:52.414Z,97695.56
2018-12-22T18:30:21.297Z,97719.31
2018-12-22T18:32:49.763Z,97717.03
2018-12-22T18:35:18.891Z,97712.38
2018-12-22T18:37:47.607Z,97604.39
2018-12-22T18:40:19.873Z,97721.61
2018-12-22T18:42:49.674Z,97714.98
2018-12-22T18:45:18.279Z,97722.66
2018-12-22T18:47:47.467Z,97725.86
2018-12-22T18:50:21.479Z,97725.73
2018-12-22T18:52:49.981Z,97730.00
2018-12-22T18:55:18.767Z,97730.92
2018-12-22T18:57:50.313Z,97749.73
2018-12-22T19:00:21.318Z,97747.91
2018-12-22T19:02:51.090Z,97738.49
2018-12-22T19:05:22.209Z,97762.39
2018-12-22T19:07:50.894Z,97773.05
2018-12-22T19:10:25.039Z,97767.92
2018-12-22T19:12:53.537Z,97760.83
2018-12-22T19:15:22.124Z,97775.66
2018-12-22T19:17:50.748Z,97768.42
2018-12-22T19:20:28.687Z,97764.09
2018-12-22T19:22:57.263Z,97772.95
2018-12-22T19:25:28.174Z,97777.05
2018-12-22T19:27:56.866Z,97785.19
2018-12-22T19:30:25.407Z,97778.84
2018-12-22T19:32:54.931Z,97778.63
2018-12-22T19:35:23.731Z,97776.58
2018-12-22T19:37:52.215Z,97762.08
2018-12-22T19:40:22.448Z,97771.02
2018-12-22T19:42:52.711Z,97757.77
2018-12-22T19:45:23.478Z,97771.22
2018-12-22T19:47:53.217Z,97771.33
2018-12-22T19:50:21.751Z,97778.30
2018-12-22T19:52:51.296Z,97782.24
2018-12-22T19:55:20.059Z,97780.13
2018-12-22T19:57:48.682Z,97788.42
2018-12-22T20:00:17.190Z,97794.09
2018-12-22T20:02:46.256Z,97791.97
2018-12-22T20:05:15.725Z,97800.67
2018-12-22T20:07:44.336Z,97797.64
2018-12-22T20:10:12.958Z,97805.85
2018-12-22T20:12:41.472Z,97791.56
2018-12-22T20:15:10.020Z,97790.73
2018-12-22T20:17:38.796Z,97809.36
2018-12-22T20:20:09.659Z,97799.41
2018-12-22T20:22:38.216Z,97796.38
2018-12-22T20:25:06.842Z,97800.30
2018-12-22T20:27:35.386Z,97794.61
2018-12-22T20:30:04.904Z,97801.95
2018-12-22T20:32:33.599Z,97800.02
2018-12-22T20:35:02.673Z,97804.00
2018-12-22T20:37:31.400Z,97800.60
2018-12-22T20:40:00.917Z,97798.92
2018-12-22T20:42:29.506Z,97782.09
2018-12-22T20:44:59.352Z,97756.14
2018-12-22T20:47:27.959Z,97769.58
2018-12-22T20:49:56.457Z,97808.11
2018-12-22T20:52:25.582Z,97807.83
2018-12-22T20:54:54.326Z,97795.19
2018-12-22T20:57:23.050Z,97797.08
2018-12-22T20:59:52.569Z,97804.14
2018-12-22T21:02:21.100Z,97819.33
2018-12-22T21:04:50.090Z,97825.43
2018-12-22T21:07:18.854Z,97828.50
2018-12-22T21:09:47.668Z,97837.59
2018-12-22T21:12:17.349Z,97845.84
2018-12-22T21:14:46.542Z,97848.87
2018-12-22T21:17:15.131Z,97837.20
2018-12-22T21:19:43.999Z,97863.58
2018-12-22T21:22:13.374Z,97881.77
2018-12-22T21:24:41.946Z,97887.81
2018-12-22T21:27:11.061Z,97889.53
2018-12-22T21:29:39.763Z,97909.83
2018-12-22T21:32:09.367Z,97912.00
2018-12-22T21:34:38.907Z,97907.22
2018-12-22T21:37:07.586Z,97915.39
2018-12-22T21:39:37.047Z,97900.25
2018-12-22T21:42:05.597Z,97899.36
2018-12-22T21:44:34.188Z,97899.78
2018-12-22T21:47:03.657Z,97900.62
2018-12-22T21:49:32.170Z,97901.44
2018-12-22T21:52:01.354Z,97921.28
2018-12-22T21:54:30.015Z,97913.91
2018-12-22T21:56:58.627Z,97906.08
2018-12-22T21:59:27.877Z,97920.72
2018-12-22T22:01:56.550Z,97928.91
2018-12-22T22:04:26.181Z,97936.22
2018-12-22T22:06:54.714Z,97935.78
2018-12-22T22:09:23.162Z,97946.92
2018-12-22T22:11:52.073Z,97935.66
2018-12-22T22:14:20.658Z,97940.36
2018-12-22T22:16:49.137Z,97943.91
2018-12-22T22:19:17.570Z,97940.02
2018-12-22T22:21:46.038Z,97935.19
2018-12-22T22:24:14.504Z,97947.64
2018-12-22T22:26:43.123Z,97940.27
2018-12-22T22:29:12.563Z,97941.09
2018-12-22T22:31:41.042Z,97948.89
2018-12-22T22:34:09.811Z,97951.91
2018-12-22T22:36:38.417Z,97953.21
2018-12-22T22:39:07.112Z,97964.03
2018-12-22T22:41:35.625Z,97963.17
2018-12-22T22:44:04.173Z,97966.16
2018-12-22T22:46:33.038Z,97957.95
2018-12-22T22:49:01.470Z,97955.80
2018-12-22T22:51:29.937Z,97947.12
2018-12-22T22:53:58.380Z,97940.22
2018-12-22T22:56:26.806Z,97931.55
2018-12-22T22:58:55.268Z,97922.87
2018-12-22T23:01:24.146Z,97919.80
2018-12-22T23:03:52.827Z,97922.30
2018-12-22T23:06:21.357Z,97923.10
2018-12-22T23:08:49.866Z,97917.91
2018-12-22T23:11:18.344Z,97906.23
2018-12-22T23:13:46.777Z,97907.51
2018-12-22T23:16:15.228Z,97894.97
2018-12-22T23:18:43.680Z,97894.16
2018-12-22T23:21:12.161Z,97902.89
2018-12-22T23:23:40.591Z,97899.98
2018-12-22T23:26:09.037Z,97889.77
2018-12-22T23:28:37.490Z,97899.38
2018-12-22T23:31:05.989Z,97885.70
2018-12-22T23:33:34.413Z,97877.75
2018-12-22T23:36:02.839Z,97861.01
2018-12-22T23:38:31.296Z,97867.42
2018-12-22T23:40:59.741Z,97862.20
2018-12-22T23:43:28.167Z,97861.41
2018-12-22T23:45:56.626Z,97855.80
2018-12-22T23:48:25.294Z,97857.55
2018-12-22T23:50:53.910Z,97806.95
2018-12-22T23:53:22.366Z,97877.78
2018-12-22T23:55:50.845Z,97880.23
2018-12-22T23:58:19.315Z,97888.78
